< < Back
Terminal Aerodrome Forecast


Current Version              Previous Versions:   1  2  3  4  5  6  7  8  9  

Terminal Aerodrome Forecast

127
FTUS44 KBMX 312300 RRA
TAFTCL
TAF
KTCL 312341Z 0100/0124 00000KT P6SM BKN150
     FM010800 00000KT 4SM BR SCT025 SCT150
     FM011500 20007KT P6SM SCT025 BKN150=

Latest METAR

376
SAUS70 KWBC 020200 RRN
MTRTCL
METAR KTCL 020153Z 19005KT 10SM CLR 29/21 A3004 RMK AO2 SLP169 T02890211
$


USA.gov is the U.S. government's official web portal to all federal, state and local government web resources and services.